Time;durP1;ratioP1;P1;durP2;ratioP2;P2;SDS_P1;SDS_P2;PMS_P1;PMS_P2;Temp;Humidity;BMP_temperature;BMP_pressure;BME280_temperature;BME280_humidity;BME280_pressure;Samples;Min_cycle;Max_cycle;Signal;HPM_P1;HPM_P2
2023/09/22 00:05:18;;;;;;;14.32;7.95;;;;;;;20.12;63.20;99343.72;15551234;28;20100;-46
2023/09/22 00:12:54;;;;;;;11.45;8.07;;;;;;;19.86;63.70;99339.94;15557016;28;20050;-45
2023/09/22 00:20:27;;;;;;;13.30;8.63;;;;;;;20.14;62.75;99362.47;15563795;28;20046;-45
2023/09/22 00:28:01;;;;;;;15.90;8.98;;;;;;;19.69;64.10;99383.34;15563646;28;20049;-48
2023/09/22 00:35:34;;;;;;;15.27;9.60;;;;;;;19.77;64.17;99375.28;15562308;28;20065;-48
2023/09/22 00:43:11;;;;;;;12.20;9.80;;;;;;;20.10;63.12;99375.13;15563197;28;20066;-46
2023/09/22 00:50:48;;;;;;;15.15;9.88;;;;;;;20.22;62.75;99374.56;15563174;28;20045;-47
2023/09/22 00:58:24;;;;;;;16.98;9.73;;;;;;;20.13;62.60;99367.13;15562384;28;20066;-46
2023/09/22 01:05:57;;;;;;;14.90;9.23;;;;;;;19.93;63.56;99383.13;15544470;28;20038;-47
2023/09/22 01:13:31;;;;;;;11.48;8.82;;;;;;;19.93;63.37;99385.84;15561110;28;20050;-48
2023/09/22 01:21:04;;;;;;;13.27;8.68;;;;;;;19.91;63.43;99380.72;15560986;28;20042;-46
2023/09/22 01:28:39;;;;;;;13.00;9.10;;;;;;;19.93;63.69;99394.81;15542783;28;20076;-46
2023/09/22 01:36:14;;;;;;;13.45;8.88;;;;;;;19.95;63.67;99408.94;15542558;28;20034;-45
2023/09/22 01:43:49;;;;;;;14.45;9.80;;;;;;;19.10;66.66;99426.59;15559784;28;20046;-48
2023/09/22 01:51:23;;;;;;;11.32;9.13;;;;;;;19.44;65.88;99426.25;15542404;28;20302;-48
2023/09/22 01:58:58;;;;;;;13.18;8.63;;;;;;;19.12;67.03;99427.13;15542438;28;20557;-46
2023/09/22 02:06:31;;;;;;;12.68;8.57;;;;;;;19.27;66.36;99420.59;15558982;28;20426;-47
2023/09/22 02:14:05;;;;;;;12.15;7.93;;;;;;;19.46;66.21;99429.50;15559335;28;20095;-46
2023/09/22 02:21:39;;;;;;;9.80;6.18;;;;;;;19.55;65.58;99424.97;15556861;28;20605;-47
2023/09/22 02:29:14;;;;;;;8.57;6.28;;;;;;;19.47;66.38;99438.47;15540299;28;20346;-49
2023/09/22 02:36:55;;;;;;;11.27;5.70;;;;;;;19.88;64.45;99465.72;15539274;28;20081;-47
2023/09/22 02:44:31;;;;;;;6.35;4.63;;;;;;;19.09;67.79;99476.66;15597820;23;20046;-50
2023/09/22 02:52:05;;;;;;;6.65;3.45;;;;;;;19.61;66.33;99507.34;15671858;28;20061;-51
2023/09/22 02:59:58;;;;;;;9.63;3.00;;;;;;;19.77;65.79;99507.88;15628720;28;20061;-48
2023/09/22 03:07:47;;;;;;;4.90;2.20;;;;;;;18.89;69.05;99515.06;15601218;28;20045;-52
2023/09/22 03:15:24;;;;;;;2.58;1.30;;;;;;;18.55;70.45;99525.00;15660632;28;20041;-51
2023/09/22 03:22:58;;;;;;;2.38;1.15;;;;;;;18.00;73.58;99540.94;15642986;28;20037;-52
2023/09/22 03:30:39;;;;;;;3.20;1.10;;;;;;;17.93;73.99;99561.38;15643175;28;20481;-50
2023/09/22 03:38:16;;;;;;;4.60;0.90;;;;;;;17.64;75.66;99586.59;15609557;28;20107;-51
2023/09/22 03:45:54;;;;;;;2.58;1.30;;;;;;;17.82;76.75;99588.63;15660694;28;20151;-50
2023/09/22 03:53:32;;;;;;;3.20;1.23;;;;;;;17.56;77.60;99592.63;15672539;28;20048;-51
2023/09/22 04:01:08;;;;;;;3.95;1.52;;;;;;;18.21;75.99;99603.16;15626326;28;20045;-51
2023/09/22 04:08:54;;;;;;;4.72;1.70;;;;;;;17.38;80.27;99596.00;15672371;28;20272;-49
2023/09/22 04:16:29;;;;;;;3.83;1.50;;;;;;;17.60;79.08;99570.06;15686315;28;20033;-49
2023/09/22 04:24:03;;;;;;;4.40;1.70;;;;;;;18.12;77.69;99559.50;15688299;28;20041;-49
2023/09/22 04:31:38;;;;;;;3.88;1.20;;;;;;;18.45;76.08;99565.91;15687194;28;20400;-49
2023/09/22 04:39:12;;;;;;;3.13;1.70;;;;;;;18.40;75.61;99584.19;15612234;28;20057;-48
2023/09/22 04:46:47;;;;;;;5.93;2.30;;;;;;;18.29;76.49;99580.78;15624175;28;20034;-50
2023/09/22 04:54:21;;;;;;;5.68;1.83;;;;;;;18.10;76.61;99607.88;15623438;28;20044;-50
2023/09/22 05:01:57;;;;;;;4.63;2.15;;;;;;;17.77;77.94;99612.28;15604133;28;20053;-49
2023/09/22 05:09:30;;;;;;;4.53;1.95;;;;;;;17.99;76.41;99588.16;15621059;28;20096;-48
2023/09/22 05:17:05;;;;;;;5.30;2.05;;;;;;;17.41;79.27;99625.28;15622256;28;20108;-48
2023/09/22 05:24:38;;;;;;;2.97;1.90;;;;;;;17.80;79.14;99626.06;15621605;28;20077;-49
2023/09/22 05:32:15;;;;;;;4.78;2.20;;;;;;;17.79;78.82;99624.47;15621288;28;20060;-49
2023/09/22 05:39:47;;;;;;;4.85;1.80;;;;;;;17.89;78.07;99644.47;15603556;28;20037;-48
2023/09/22 05:47:23;;;;;;;4.53;1.80;;;;;;;17.33;80.14;99694.50;15682481;28;20071;-49
2023/09/22 05:54:56;;;;;;;3.17;1.70;;;;;;;17.28;79.83;99702.69;15664422;28;20073;-45
2023/09/22 06:02:31;;;;;;;4.32;1.80;;;;;;;17.64;78.30;99705.97;15625425;28;20046;-48
2023/09/22 06:10:06;;;;;;;4.05;1.75;;;;;;;17.24;80.19;99715.16;15631811;28;20046;-48
2023/09/22 06:17:41;;;;;;;3.00;1.58;;;;;;;17.49;79.65;99711.53;15649761;28;20129;-48
2023/09/22 06:25:19;;;;;;;4.28;1.73;;;;;;;17.82;77.60;99712.69;15653488;28;20110;-50
2023/09/22 06:32:54;;;;;;;2.80;1.50;;;;;;;17.44;79.55;99714.25;15679978;28;20432;-53
2023/09/22 06:40:27;;;;;;;5.38;1.60;;;;;;;17.68;79.18;99741.53;15620787;28;20084;-48
2023/09/22 06:48:02;;;;;;;4.28;2.17;;;;;;;18.36;76.86;99739.63;15645761;28;20102;-51
2023/09/22 06:55:36;;;;;;;3.83;1.65;;;;;;;18.08;76.87;99762.94;15679359;28;20064;-49
2023/09/22 07:03:11;;;;;;;3.50;1.58;;;;;;;18.13;76.68;99759.38;15635829;28;20041;-48
2023/09/22 07:10:44;;;;;;;7.07;1.75;;;;;;;18.01;77.46;99789.63;15655860;28;20041;-50
2023/09/22 07:18:18;;;;;;;3.15;1.55;;;;;;;18.08;76.74;99813.75;15677850;28;20486;-49
2023/09/22 07:25:59;;;;;;;4.90;1.90;;;;;;;18.03;76.60;99814.59;15676819;28;20067;-49
2023/09/22 07:33:35;;;;;;;3.30;1.70;;;;;;;17.70;77.57;99807.16;15676536;28;20060;-51
2023/09/22 07:41:08;;;;;;;2.78;2.20;;;;;;;18.12;76.58;99843.88;15658807;28;20433;-53
2023/09/22 07:48:43;;;;;;;4.85;2.33;;;;;;;17.74;76.92;99836.22;15675975;28;20387;-51
2023/09/22 07:56:18;;;;;;;4.25;2.50;;;;;;;17.89;77.58;99839.94;15671864;28;20045;-48
2023/09/22 08:03:53;;;;;;;9.50;3.33;;;;;;;17.85;78.14;99861.41;15634408;28;20047;-51
2023/09/22 08:11:26;;;;;;;5.50;1.75;;;;;;;17.90;78.51;99849.69;15643033;28;20057;-49
2023/09/22 08:19:00;;;;;;;3.20;1.60;;;;;;;17.88;77.90;99874.44;15675219;28;20049;-48
2023/09/22 08:26:33;;;;;;;6.20;1.70;;;;;;;18.16;76.79;99880.25;15657202;28;20059;-51
2023/09/22 08:34:08;;;;;;;10.50;3.50;;;;;;;18.16;76.06;99900.06;15680087;28;20060;-46
2023/09/22 08:41:42;;;;;;;2.78;1.27;;;;;;;18.03;76.55;99906.91;15697489;22;20067;-48
2023/09/22 08:49:16;;;;;;;4.20;1.70;;;;;;;17.97;75.88;99916.19;15686185;28;20052;-48
2023/09/22 08:56:50;;;;;;;5.30;1.77;;;;;;;18.00;76.00;99921.06;15666976;28;20072;-49
2023/09/22 09:04:32;;;;;;;2.63;1.30;;;;;;;18.06;75.74;99924.56;15650605;28;20523;-52
2023/09/22 09:12:08;;;;;;;2.27;1.40;;;;;;;18.08;74.73;99933.22;15675169;28;20053;-46
2023/09/22 09:19:47;;;;;;;4.70;1.33;;;;;;;18.17;74.67;99960.63;15684664;28;20040;-46
2023/09/22 09:27:21;;;;;;;4.57;1.60;;;;;;;18.09;74.86;99959.28;15683941;28;20052;-50
2023/09/22 09:34:56;;;;;;;3.45;1.38;;;;;;;18.22;75.26;99980.41;15665478;28;20114;-47
2023/09/22 09:42:31;;;;;;;3.03;1.38;;;;;;;18.17;74.83;99977.72;15683172;28;20086;-49
2023/09/22 09:50:10;;;;;;;4.75;1.35;;;;;;;18.03;75.00;99982.16;15682398;28;20156;-48
2023/09/22 09:57:46;;;;;;;5.20;1.38;;;;;;;17.55;75.26;99970.88;15656724;28;20132;-47
2023/09/22 10:05:23;;;;;;;3.53;1.00;;;;;;;17.75;75.20;99975.47;15638991;28;20509;-48
2023/09/22 10:12:56;;;;;;;4.50;1.30;;;;;;;18.40;73.31;99962.66;15667383;28;20119;-46
2023/09/22 10:20:45;;;;;;;4.47;1.92;;;;;;;18.35;73.34;99968.13;15674934;28;20480;-48
2023/09/22 10:28:28;;;;;;;3.88;1.33;;;;;;;17.95;74.63;99978.13;15680852;28;20041;-47
2023/09/22 10:36:04;;;;;;;5.18;1.77;;;;;;;18.29;73.83;99972.78;15652453;28;20429;-46
2023/09/22 10:43:56;;;;;;;2.85;1.50;;;;;;;18.12;72.39;99971.53;15679793;28;20048;-49
2023/09/22 10:51:46;;;;;;;3.10;1.35;;;;;;;18.42;71.19;99975.97;15679338;28;20106;-47
2023/09/22 10:59:19;;;;;;;2.42;1.27;;;;;;;18.07;73.28;99964.22;15672556;28;20060;-49
2023/09/22 11:06:54;;;;;;;3.72;1.60;;;;;;;18.53;71.27;99944.94;15668847;28;20069;-47
2023/09/22 11:14:28;;;;;;;3.63;1.75;;;;;;;18.69;68.95;99951.09;15678015;28;20037;-48
2023/09/22 11:22:04;;;;;;;4.20;1.48;;;;;;;18.13;71.12;99965.00;15678265;28;20074;-46
2023/09/22 11:29:39;;;;;;;3.08;1.40;;;;;;;18.20;70.53;99974.47;15677930;28;20064;-48
2023/09/22 11:37:13;;;;;;;3.17;1.20;;;;;;;17.81;71.47;99982.50;15668439;28;20045;-48
2023/09/22 11:44:46;;;;;;;4.78;1.30;;;;;;;18.09;70.63;100008.19;15660187;28;20099;-49
2023/09/22 11:52:30;;;;;;;2.72;1.27;;;;;;;18.03;70.09;100017.44;15676841;28;20453;-49
2023/09/22 12:00:07;;;;;;;2.78;1.25;;;;;;;18.71;67.65;100006.00;15665715;28;20056;-48
2023/09/22 12:07:41;;;;;;;1.33;1.00;;;;;;;18.51;66.22;100004.16;15647016;28;20044;-49
2023/09/22 12:15:14;;;;;;;2.35;0.93;;;;;;;18.29;66.78;100008.09;15678499;28;20041;-51
2023/09/22 12:22:51;;;;;;;3.30;1.20;;;;;;;18.58;65.17;100031.88;15682193;28;20400;-47
2023/09/22 12:30:24;;;;;;;3.08;1.10;;;;;;;18.30;65.64;100061.34;15687662;28;20056;-47
2023/09/22 12:38:00;;;;;;;2.00;1.15;;;;;;;17.87;69.00;100072.91;15681479;28;20041;-48
2023/09/22 12:45:33;;;;;;;3.00;1.30;;;;;;;17.85;70.59;100063.09;15679283;28;20132;-47
2023/09/22 12:53:07;;;;;;;3.58;1.40;;;;;;;17.91;72.30;100053.06;15685733;28;20048;-47
2023/09/22 13:00:46;;;;;;;1.17;1.00;;;;;;;18.13;69.71;100047.28;15649293;28;20032;-46
2023/09/22 13:08:22;;;;;;;3.05;1.33;;;;;;;18.52;68.10;100046.59;15679971;28;20404;-47
2023/09/22 13:15:55;;;;;;;5.90;1.50;;;;;;;18.45;67.83;100036.00;15686268;28;20041;-47
2023/09/22 13:23:29;;;;;;;5.50;1.65;;;;;;;18.76;68.49;100031.25;15684081;28;20049;-48
2023/09/22 13:31:05;;;;;;;3.10;1.20;;;;;;;17.77;69.89;100038.44;15684236;28;20044;-48
2023/09/22 13:38:40;;;;;;;3.17;1.40;;;;;;;17.60;69.45;100041.41;15672441;28;20099;-47
2023/09/22 13:46:16;;;;;;;1.92;1.30;;;;;;;17.70;68.37;100040.59;15683715;28;20064;-47
2023/09/22 13:53:50;;;;;;;3.42;1.52;;;;;;;17.59;68.20;100024.31;15665157;28;20040;-49
2023/09/22 14:01:24;;;;;;;10.93;1.90;;;;;;;17.84;67.33;100036.25;15651596;28;20068;-50
2023/09/22 14:08:58;;;;;;;3.55;1.60;;;;;;;17.96;67.86;100036.75;15678157;28;20041;-47
2023/09/22 14:16:31;;;;;;;2.78;1.48;;;;;;;17.91;68.11;100044.94;15682493;28;20128;-47
2023/09/22 14:24:07;;;;;;;3.42;1.52;;;;;;;17.67;68.09;100051.97;15681153;28;20404;-47
2023/09/22 14:31:40;;;;;;;3.58;1.55;;;;;;;17.59;68.56;100067.75;15679028;28;20079;-46
2023/09/22 14:39:15;;;;;;;4.72;1.50;;;;;;;17.81;67.63;100056.63;15681233;28;20036;-48
2023/09/22 14:46:48;;;;;;;6.25;1.40;;;;;;;17.96;67.25;100054.97;15675330;28;20071;-50
2023/09/22 14:54:22;;;;;;;3.88;1.30;;;;;;;17.91;67.27;100039.50;15672414;28;20065;-47
2023/09/22 15:01:55;;;;;;;2.30;1.35;;;;;;;17.69;66.90;100066.91;15661398;28;20140;-47
2023/09/22 15:09:30;;;;;;;3.00;1.48;;;;;;;17.40;67.75;100060.44;15677911;28;20049;-50
2023/09/22 15:17:07;;;;;;;4.28;1.48;;;;;;;17.03;68.45;100075.06;15679069;28;20460;-46
2023/09/22 15:24:42;;;;;;;3.70;1.60;;;;;;;17.51;67.61;100086.47;15678385;28;20036;-47
2023/09/22 15:32:15;;;;;;;2.28;1.35;;;;;;;17.85;66.18;100082.09;15677482;28;20047;-46
2023/09/22 15:39:49;;;;;;;5.25;1.20;;;;;;;17.48;67.01;100073.44;15677366;28;20072;-48
2023/09/22 15:47:23;;;;;;;4.45;1.83;;;;;;;17.69;66.41;100071.53;15677216;28;20044;-49
2023/09/22 15:54:59;;;;;;;2.17;1.38;;;;;;;17.74;65.62;100066.94;15677317;28;20041;-47
2023/09/22 16:02:31;;;;;;;4.35;1.50;;;;;;;17.93;64.91;100069.06;15659890;28;21684;-46
2023/09/22 16:10:07;;;;;;;3.13;1.30;;;;;;;17.97;64.50;100100.03;15645585;28;20037;-47
2023/09/22 16:17:41;;;;;;;7.00;1.75;;;;;;;17.56;65.88;100097.31;15649002;28;20127;-47
2023/09/22 16:25:16;;;;;;;3.75;1.73;;;;;;;17.68;65.30;100103.31;15669789;28;20045;-50
2023/09/22 16:32:50;;;;;;;2.17;1.17;;;;;;;17.59;66.18;100099.50;15676244;28;20041;-51
2023/09/22 16:40:25;;;;;;;3.80;1.30;;;;;;;17.91;64.49;100112.81;15669836;28;20228;-49
2023/09/22 16:47:59;;;;;;;12.63;6.28;;;;;;;17.65;65.18;100103.84;15675664;28;20091;-52
2023/09/22 16:55:34;;;;;;;3.65;1.70;;;;;;;18.09;63.92;100120.38;15679090;28;20127;-48
2023/09/22 17:03:07;;;;;;;5.00;1.77;;;;;;;17.89;63.97;100114.16;15676593;28;20496;-46
2023/09/22 17:10:42;;;;;;;4.72;1.70;;;;;;;17.47;65.39;100139.66;15669270;28;20064;-49
2023/09/22 17:18:15;;;;;;;5.65;1.60;;;;;;;17.37;65.99;100148.59;15667767;28;20047;-49
2023/09/22 17:25:52;;;;;;;3.03;1.60;;;;;;;17.51;65.97;100146.97;15667053;28;20037;-48
2023/09/22 17:33:25;;;;;;;3.97;1.77;;;;;;;17.63;65.21;100144.00;15684205;28;20045;-47
2023/09/22 17:41:00;;;;;;;3.83;1.90;;;;;;;17.63;65.67;100160.28;15660512;28;20493;-46
2023/09/22 17:48:33;;;;;;;7.50;2.00;;;;;;;17.39;67.06;100180.88;15683527;28;20132;-47
2023/09/22 17:56:08;;;;;;;7.78;2.10;;;;;;;17.64;66.45;100185.53;15680893;28;20060;-48
2023/09/22 18:03:42;;;;;;;5.80;2.17;;;;;;;17.58;66.62;100163.81;15644856;28;20125;-48
2023/09/22 18:11:16;;;;;;;7.85;2.08;;;;;;;17.31;66.58;100153.22;15663391;28;20095;-50
2023/09/22 18:18:51;;;;;;;6.45;2.72;;;;;;;17.34;66.96;100171.66;15675697;28;20073;-47
2023/09/22 18:26:25;;;;;;;3.90;2.40;;;;;;;17.16;67.10;100183.03;15679949;28;20125;-47
2023/09/22 18:34:00;;;;;;;3.13;2.20;;;;;;;16.98;68.07;100184.31;15680812;28;20045;-47
2023/09/22 18:41:34;;;;;;;6.63;2.38;;;;;;;16.68;69.17;100174.13;15672391;28;20092;-46
2023/09/22 18:49:09;;;;;;;4.53;2.50;;;;;;;16.24;71.35;100193.41;15680550;28;20047;-47
2023/09/22 18:56:43;;;;;;;6.30;2.90;;;;;;;16.25;72.44;100188.81;15674749;28;20120;-49
2023/09/22 19:04:17;;;;;;;6.35;3.13;;;;;;;16.33;72.99;100188.31;15649408;28;20537;-47
2023/09/22 19:11:51;;;;;;;6.18;3.00;;;;;;;16.38;72.92;100176.69;15649762;28;20040;-48
2023/09/22 19:19:25;;;;;;;3.97;3.10;;;;;;;16.58;72.12;100155.13;15677975;28;20041;-47
2023/09/22 19:26:59;;;;;;;;;;;;;;;16.87;71.39;100158.25;15678460;28;20037;-51
2023/09/22 19:34:33;;;;;;;3.83;2.85;;;;;;;16.89;70.85;100153.38;15677853;28;19943;-50
2023/09/22 19:42:07;;;;;;;;;;;;;;;17.03;70.31;100187.03;15666741;28;20045;-49
2023/09/22 19:49:40;;;;;;;5.18;3.50;;;;;;;16.91;70.66;100170.19;15675793;28;19964;-49
2023/09/22 19:57:17;;;;;;;;;;;;;;;16.53;72.03;100157.81;15670526;28;20041;-46
2023/09/22 20:04:50;;;;;;;5.32;3.78;;;;;;;16.85;70.79;100173.97;15648442;28;19921;-49
2023/09/22 20:12:26;;;;;;;25.30;14.45;;;;;;;16.68;71.65;100168.72;15670090;28;20049;-49
2023/09/22 20:19:59;;;;;;;6.38;3.80;;;;;;;16.60;71.58;100177.38;15669349;28;20485;-48
2023/09/22 20:27:34;;;;;;;6.28;3.75;;;;;;;16.00;74.01;100186.75;15676663;28;20045;-49
2023/09/22 20:35:09;;;;;;;6.07;3.85;;;;;;;16.16;73.24;100190.38;15663285;28;20058;-46
2023/09/22 20:42:43;;;;;;;5.75;3.88;;;;;;;15.99;74.27;100201.34;15687916;28;20463;-46
2023/09/22 20:50:20;;;;;;;9.13;4.15;;;;;;;16.20;73.23;100189.59;15685060;28;20056;-47
2023/09/22 20:57:54;;;;;;;;;;;;;;;16.36;73.17;100211.34;15679645;28;20040;-46
2023/09/22 21:05:33;;;;;;;5.97;3.70;;;;;;;16.35;72.61;100221.38;15675453;28;20285;-47
2023/09/22 21:13:08;;;;;;;5.40;3.85;;;;;;;16.19;72.76;100201.50;15674035;28;20036;-48
2023/09/22 21:20:41;;;;;;;8.55;4.10;;;;;;;16.00;73.89;100211.94;15685106;28;20143;-48
2023/09/22 21:28:17;;;;;;;6.15;4.20;;;;;;;15.98;74.00;100227.59;15685088;28;20041;-46
2023/09/22 21:35:50;;;;;;;5.95;4.53;;;;;;;16.05;73.78;100230.09;15666144;28;20049;-46
2023/09/22 21:43:24;;;;;;;5.82;3.80;;;;;;;16.04;73.94;100213.03;15682499;28;20128;-46
2023/09/22 21:50:58;;;;;;;6.03;4.35;;;;;;;16.27;73.06;100211.00;15665463;28;20531;-45
2023/09/22 21:58:32;;;;;;;6.90;4.00;;;;;;;16.24;72.62;100215.06;15675325;28;20131;-48
2023/09/22 22:06:10;;;;;;;6.10;4.00;;;;;;;16.25;72.73;100210.47;15671770;28;20040;-49
2023/09/22 22:13:45;;;;;;;12.38;7.70;;;;;;;15.92;73.23;100206.97;15672501;28;20473;-49
2023/09/22 22:21:18;;;;;;;5.70;4.05;;;;;;;15.47;75.15;100208.16;15681244;28;20107;-49
2023/09/22 22:28:53;;;;;;;6.13;3.97;;;;;;;15.79;74.05;100210.13;15663682;28;20041;-46
2023/09/22 22:36:27;;;;;;;8.20;3.78;;;;;;;15.54;74.67;100210.69;15681362;28;20481;-46
2023/09/22 22:44:02;;;;;;;5.60;3.83;;;;;;;15.38;75.49;100219.69;15681049;28;20643;-52
2023/09/22 22:51:35;;;;;;;6.53;3.95;;;;;;;15.74;74.07;100210.88;15680370;28;20041;-46
2023/09/22 22:59:10;;;;;;;7.13;3.78;;;;;;;15.53;74.56;100212.56;15671305;28;20087;-46
2023/09/22 23:06:43;;;;;;;6.13;3.55;;;;;;;15.46;74.27;100217.34;15672122;28;20041;-48
2023/09/22 23:14:22;;;;;;;4.25;3.40;;;;;;;15.42;74.79;100228.94;15667515;28;20458;-51
2023/09/22 23:21:55;;;;;;;9.05;3.67;;;;;;;15.29;74.92;100228.28;15677869;28;20414;-47
2023/09/22 23:29:30;;;;;;;6.22;3.15;;;;;;;14.80;76.08;100230.94;15677520;28;20044;-46
2023/09/22 23:37:04;;;;;;;4.65;3.30;;;;;;;14.78;76.20;100233.06;15678294;28;20037;-48
2023/09/22 23:44:41;;;;;;;6.10;3.40;;;;;;;14.55;76.89;100225.19;15678599;28;20095;-45
2023/09/22 23:52:14;;;;;;;5.72;3.15;;;;;;;14.76;77.27;100237.91;15677475;28;20068;-47
2023/09/22 23:59:49;;;;;;;5.82;3.20;;;;;;;15.48;74.06;100246.84;15674549;28;20037;-46
